createdAt,value
2023-05-09T00:01:13.014Z,0.95
2023-05-09T00:03:39.719Z,1.00
2023-05-09T00:06:06.778Z,0.70
2023-05-09T00:08:33.486Z,0.68
2023-05-09T00:10:59.939Z,0.70
2023-05-09T00:13:26.363Z,0.77
2023-05-09T00:15:54.114Z,0.60
2023-05-09T00:18:22.046Z,0.43
2023-05-09T00:20:48.830Z,0.43
2023-05-09T00:23:15.638Z,0.52
2023-05-09T00:25:42.309Z,0.30
2023-05-09T00:28:08.807Z,0.43
2023-05-09T00:30:35.346Z,0.80
2023-05-09T00:33:01.865Z,0.90
2023-05-09T00:35:28.297Z,0.73
2023-05-09T00:37:54.671Z,1.20
2023-05-09T00:40:21.241Z,0.90
2023-05-09T00:42:47.619Z,0.70
2023-05-09T00:45:14.191Z,0.60
2023-05-09T00:47:41.162Z,0.73
2023-05-09T00:50:08.611Z,1.02
2023-05-09T00:52:35.578Z,1.08
2023-05-09T00:55:02.091Z,1.25
2023-05-09T00:57:28.487Z,1.02
2023-05-09T00:59:55.021Z,0.60
2023-05-09T01:02:21.868Z,0.65
2023-05-09T01:04:48.442Z,0.80
2023-05-09T01:07:17.940Z,0.80
2023-05-09T01:09:52.347Z,0.52
2023-05-09T01:12:24.475Z,0.50
2023-05-09T01:14:57.942Z,0.80
2023-05-09T01:17:24.287Z,0.95
2023-05-09T01:19:56.734Z,0.70
2023-05-09T01:22:26.812Z,0.70
2023-05-09T01:25:02.647Z,0.88
2023-05-09T01:27:37.078Z,0.80
2023-05-09T01:30:03.776Z,0.70
2023-05-09T01:32:31.357Z,0.43
2023-05-09T01:35:01.398Z,0.90
2023-05-09T01:37:31.729Z,1.15
2023-05-09T01:40:01.456Z,1.00
2023-05-09T01:42:29.864Z,1.00
2023-05-09T01:44:56.438Z,1.10
2023-05-09T01:47:23.289Z,1.30
2023-05-09T01:49:50.231Z,1.38
2023-05-09T01:52:18.534Z,1.08
2023-05-09T01:54:45.861Z,0.90
2023-05-09T01:57:12.651Z,0.60
2023-05-09T01:59:40.850Z,0.50
2023-05-09T02:02:07.723Z,0.40
2023-05-09T02:04:35.590Z,0.38
2023-05-09T02:07:02.655Z,0.38
2023-05-09T02:09:29.005Z,0.38
2023-05-09T02:11:55.512Z,0.30
2023-05-09T02:14:22.116Z,0.20
2023-05-09T02:16:48.529Z,0.40
2023-05-09T02:19:14.914Z,0.50
2023-05-09T02:21:41.329Z,0.30
2023-05-09T02:24:07.879Z,0.30
2023-05-09T02:26:34.406Z,1.20
2023-05-09T02:29:01.000Z,0.85
2023-05-09T02:31:28.382Z,0.60
2023-05-09T02:33:54.969Z,0.70
2023-05-09T02:36:22.272Z,0.73
2023-05-09T02:38:48.817Z,0.80
2023-05-09T02:41:16.176Z,0.70
2023-05-09T02:43:42.972Z,0.52
2023-05-09T02:46:09.633Z,0.50
2023-05-09T02:48:36.911Z,0.50
2023-05-09T02:51:03.357Z,0.50
2023-05-09T02:53:29.747Z,0.65
2023-05-09T02:55:56.225Z,0.50
2023-05-09T02:58:22.632Z,0.47
2023-05-09T03:00:48.944Z,0.60
2023-05-09T03:03:16.088Z,0.40
2023-05-09T03:05:42.529Z,0.60
2023-05-09T03:08:09.188Z,0.55
2023-05-09T03:10:35.656Z,0.60
2023-05-09T03:13:02.151Z,0.40
2023-05-09T03:15:28.573Z,0.60
2023-05-09T03:17:54.956Z,0.60
2023-05-09T03:20:21.394Z,0.52
2023-05-09T03:22:48.524Z,0.95
2023-05-09T03:25:15.066Z,0.80
2023-05-09T03:27:41.582Z,0.70
2023-05-09T03:30:08.186Z,0.63
2023-05-09T03:32:34.543Z,0.40
2023-05-09T03:35:01.238Z,0.35
2023-05-09T03:37:27.592Z,0.52
2023-05-09T03:39:53.938Z,0.50
2023-05-09T03:42:20.436Z,0.50
2023-05-09T03:44:47.504Z,0.70
2023-05-09T03:47:13.916Z,0.70
2023-05-09T03:49:40.312Z,0.50
2023-05-09T03:52:06.611Z,0.50
2023-05-09T03:54:33.040Z,0.50
2023-05-09T03:56:59.383Z,0.60
2023-05-09T03:59:26.059Z,0.60
2023-05-09T04:01:52.675Z,0.40
2023-05-09T04:04:19.207Z,0.38
2023-05-09T04:06:45.539Z,0.68
2023-05-09T04:09:11.969Z,1.60
2023-05-09T04:11:38.364Z,1.65
2023-05-09T04:14:07.284Z,1.30
2023-05-09T04:16:36.026Z,0.90
2023-05-09T04:19:02.684Z,0.63
2023-05-09T04:21:29.050Z,0.70
2023-05-09T04:23:55.341Z,0.60
2023-05-09T04:26:22.632Z,0.70
2023-05-09T04:28:49.147Z,0.50
2023-05-09T04:31:15.586Z,0.88
2023-05-09T04:33:42.014Z,1.45
2023-05-09T04:36:08.598Z,2.40
2023-05-09T04:38:35.241Z,2.42
2023-05-09T04:41:01.533Z,1.98
2023-05-09T04:43:28.264Z,2.03
2023-05-09T04:45:54.708Z,1.48
2023-05-09T04:48:21.140Z,1.75
2023-05-09T04:50:48.607Z,1.50
2023-05-09T04:53:15.083Z,2.05
2023-05-09T04:55:41.397Z,1.40
2023-05-09T04:58:09.048Z,1.60
2023-05-09T05:00:35.794Z,1.45
2023-05-09T05:03:02.226Z,1.80
2023-05-09T05:05:28.869Z,1.60
2023-05-09T05:07:55.572Z,1.10
2023-05-09T05:10:21.872Z,1.60
2023-05-09T05:12:48.376Z,1.63
2023-05-09T05:15:14.961Z,1.70
2023-05-09T05:17:41.516Z,1.23
2023-05-09T05:20:10.585Z,1.67
2023-05-09T05:22:36.940Z,2.28
2023-05-09T05:25:06.021Z,2.50
2023-05-09T05:27:32.423Z,2.83
2023-05-09T05:29:58.984Z,2.30
2023-05-09T05:32:25.357Z,1.75
2023-05-09T05:34:51.922Z,2.08
2023-05-09T05:37:18.222Z,2.08
2023-05-09T05:39:44.614Z,2.33
2023-05-09T05:42:11.011Z,3.53
2023-05-09T05:44:37.302Z,2.55
2023-05-09T05:47:03.814Z,2.30
2023-05-09T05:49:30.209Z,2.50
2023-05-09T05:51:56.563Z,2.72
2023-05-09T05:54:22.968Z,3.22
2023-05-09T05:56:49.430Z,2.50
2023-05-09T05:59:16.283Z,3.63
2023-05-09T06:01:42.686Z,5.18
2023-05-09T06:04:09.030Z,4.05
2023-05-09T06:06:35.570Z,3.47
2023-05-09T06:09:01.980Z,2.67
2023-05-09T06:11:28.381Z,2.20
2023-05-09T06:13:54.713Z,2.10
2023-05-09T06:16:21.557Z,1.77
2023-05-09T06:18:48.230Z,1.73
2023-05-09T06:21:14.641Z,1.15
2023-05-09T06:23:50.921Z,1.10
2023-05-09T06:26:27.479Z,1.70
2023-05-09T06:28:53.837Z,4.72
2023-05-09T06:31:20.322Z,5.80
2023-05-09T06:33:46.634Z,6.18
2023-05-09T06:36:13.047Z,5.47
2023-05-09T06:38:39.370Z,3.90
2023-05-09T06:41:05.931Z,4.75
2023-05-09T06:43:32.355Z,9.27
2023-05-09T06:45:59.058Z,8.50
2023-05-09T06:48:25.977Z,7.55
2023-05-09T06:50:52.432Z,6.35
2023-05-09T06:53:18.915Z,10.43
2023-05-09T06:55:45.502Z,6.55
2023-05-09T06:58:12.124Z,6.60
2023-05-09T07:00:38.597Z,5.47
2023-05-09T07:03:07.359Z,4.80
2023-05-09T07:05:34.243Z,9.80
2023-05-09T07:08:00.726Z,11.20
2023-05-09T07:10:27.297Z,9.98
2023-05-09T07:12:53.829Z,12.95
2023-05-09T07:15:32.428Z,9.23
2023-05-09T07:18:06.562Z,11.13
2023-05-09T07:20:32.907Z,11.25
2023-05-09T07:22:59.324Z,11.25
2023-05-09T07:25:25.840Z,12.18
2023-05-09T07:27:52.203Z,12.82
2023-05-09T07:30:18.534Z,13.20
2023-05-09T07:32:44.948Z,11.30
2023-05-09T07:35:11.299Z,9.27
2023-05-09T07:37:37.663Z,11.55
2023-05-09T07:40:05.922Z,12.00
2023-05-09T07:42:33.084Z,11.23
2023-05-09T07:45:00.280Z,12.00
2023-05-09T07:47:26.677Z,13.32
2023-05-09T07:49:53.185Z,14.07
2023-05-09T07:52:19.548Z,12.77
2023-05-09T07:54:45.888Z,13.55
2023-05-09T07:57:12.295Z,12.77
2023-05-09T07:59:38.684Z,12.27
2023-05-09T08:02:05.224Z,15.00
2023-05-09T08:04:31.766Z,15.77
2023-05-09T08:06:59.471Z,13.88
2023-05-09T08:09:26.648Z,12.55
2023-05-09T08:11:53.017Z,12.82
2023-05-09T08:14:19.500Z,14.85
2023-05-09T08:16:45.813Z,12.25
2023-05-09T08:19:12.160Z,10.82
2023-05-09T08:21:38.587Z,14.10
2023-05-09T08:24:07.915Z,13.15
2023-05-09T08:26:34.986Z,11.60
2023-05-09T08:29:01.486Z,12.07
2023-05-09T08:31:27.996Z,12.07
2023-05-09T08:33:54.487Z,11.63
2023-05-09T08:36:20.939Z,10.07
2023-05-09T08:38:47.339Z,10.57
2023-05-09T08:41:13.847Z,11.38
2023-05-09T08:43:40.431Z,11.82
2023-05-09T08:46:08.677Z,13.48
2023-05-09T08:48:37.574Z,12.30
2023-05-09T08:51:07.330Z,13.45
2023-05-09T08:53:34.242Z,13.18
2023-05-09T08:56:03.838Z,13.18
2023-05-09T08:58:31.117Z,12.45
2023-05-09T09:00:58.266Z,12.32
2023-05-09T09:03:27.639Z,11.27
2023-05-09T09:05:55.005Z,11.30
2023-05-09T09:08:22.334Z,11.48
2023-05-09T09:10:48.992Z,13.15
2023-05-09T09:13:16.807Z,13.35
2023-05-09T09:15:44.015Z,12.90
2023-05-09T09:18:13.269Z,12.75
2023-05-09T09:20:47.867Z,10.95
2023-05-09T09:23:18.282Z,9.98
2023-05-09T09:25:46.312Z,12.35
2023-05-09T09:28:12.821Z,12.20
2023-05-09T09:30:47.550Z,12.20
2023-05-09T09:33:21.359Z,11.13
2023-05-09T09:35:48.326Z,11.90
2023-05-09T09:38:14.626Z,11.52
2023-05-09T09:40:41.649Z,10.88
2023-05-09T09:43:08.099Z,10.80
2023-05-09T09:45:34.483Z,11.48
2023-05-09T09:48:05.806Z,11.32
2023-05-09T09:50:32.171Z,11.75
2023-05-09T09:53:00.404Z,11.82
2023-05-09T09:55:26.800Z,10.88
2023-05-09T09:57:53.211Z,10.40
2023-05-09T10:00:24.262Z,10.18
2023-05-09T10:02:51.877Z,10.60
2023-05-09T10:05:19.171Z,11.52
2023-05-09T10:07:45.472Z,10.85
2023-05-09T10:10:12.025Z,11.68
2023-05-09T10:12:39.585Z,10.23
2023-05-09T10:15:09.001Z,11.65
2023-05-09T10:17:35.508Z,12.05
2023-05-09T10:20:04.122Z,11.25
2023-05-09T10:22:32.249Z,10.70
2023-05-09T10:25:02.681Z,10.73
2023-05-09T10:27:30.819Z,9.63
2023-05-09T10:29:57.118Z,10.80
2023-05-09T10:32:42.338Z,11.73
2023-05-09T10:35:10.922Z,10.35
2023-05-09T10:37:37.383Z,9.63
2023-05-09T10:40:04.901Z,12.27
2023-05-09T10:42:32.729Z,11.52
2023-05-09T10:44:59.310Z,10.68
2023-05-09T10:47:27.428Z,10.38
2023-05-09T10:49:54.034Z,9.82
2023-05-09T10:52:23.542Z,11.65
2023-05-09T10:55:03.575Z,10.90
2023-05-09T10:57:31.200Z,10.57
2023-05-09T10:59:58.398Z,11.05
2023-05-09T11:02:32.788Z,10.50
2023-05-09T11:05:16.461Z,13.60
2023-05-09T11:07:43.477Z,12.35
2023-05-09T11:10:10.706Z,13.88
2023-05-09T11:12:58.086Z,13.48
2023-05-09T11:15:24.974Z,12.35
2023-05-09T11:17:52.806Z,12.25
2023-05-09T11:20:27.787Z,13.13
2023-05-09T11:22:57.087Z,11.80
2023-05-09T11:25:25.930Z,11.40
2023-05-09T11:27:52.480Z,10.43
2023-05-09T11:30:19.816Z,9.45
2023-05-09T11:32:55.981Z,9.65
2023-05-09T11:35:23.107Z,10.98
2023-05-09T11:37:49.597Z,10.85
2023-05-09T11:40:19.827Z,10.45
2023-05-09T11:42:47.628Z,10.88
2023-05-09T11:45:14.709Z,9.60
2023-05-09T11:47:41.501Z,10.82
2023-05-09T11:50:12.336Z,10.00
2023-05-09T11:52:39.481Z,10.13
2023-05-09T11:55:06.617Z,8.95
2023-05-09T11:57:33.020Z,9.52
2023-05-09T12:00:00.829Z,8.88
2023-05-09T12:02:27.866Z,11.23
2023-05-09T12:04:54.916Z,9.45
2023-05-09T12:07:21.534Z,9.55
2023-05-09T12:09:49.449Z,11.02
2023-05-09T12:12:20.684Z,8.48
2023-05-09T12:14:48.531Z,10.63
2023-05-09T12:17:15.013Z,10.32
2023-05-09T12:19:41.376Z,8.63
2023-05-09T12:22:07.708Z,8.02
2023-05-09T12:24:35.500Z,8.35
2023-05-09T12:27:02.243Z,8.32
2023-05-09T12:29:30.683Z,9.05
2023-05-09T12:31:57.961Z,6.72
2023-05-09T12:34:24.678Z,8.00
2023-05-09T12:36:51.739Z,7.30
2023-05-09T12:39:19.431Z,6.63
2023-05-09T12:41:57.530Z,7.13
2023-05-09T12:45:03.886Z,8.73
2023-05-09T12:47:15.831Z,7.15
2023-05-09T12:49:42.230Z,7.97
2023-05-09T12:52:16.562Z,6.60
2023-05-09T12:54:45.796Z,6.35
2023-05-09T12:57:20.620Z,7.03
2023-05-09T12:59:47.178Z,6.93
2023-05-09T13:02:13.562Z,6.45
2023-05-09T13:04:39.923Z,7.25
2023-05-09T13:07:09.038Z,6.93
2023-05-09T13:09:35.385Z,7.00
2023-05-09T13:12:04.076Z,7.03
2023-05-09T13:14:30.694Z,9.25
2023-05-09T13:16:57.102Z,8.15
2023-05-09T13:19:23.531Z,8.10
2023-05-09T13:21:49.940Z,8.23
2023-05-09T13:24:16.468Z,8.20
2023-05-09T13:26:42.780Z,8.07
2023-05-09T13:29:09.115Z,8.18
2023-05-09T13:31:35.679Z,7.38
2023-05-09T13:34:02.156Z,6.40
2023-05-09T13:36:28.490Z,7.32
2023-05-09T13:38:54.813Z,7.72
2023-05-09T13:41:23.554Z,7.15
2023-05-09T13:43:50.044Z,7.03
2023-05-09T13:46:16.505Z,8.10
2023-05-09T13:48:42.946Z,8.45
2023-05-09T13:51:10.032Z,7.97
2023-05-09T13:53:38.682Z,6.55
2023-05-09T13:56:06.402Z,7.93
2023-05-09T13:58:33.019Z,8.30
2023-05-09T14:00:59.433Z,7.57
2023-05-09T14:03:26.554Z,9.15
2023-05-09T14:05:53.049Z,7.40
2023-05-09T14:08:21.246Z,8.25
2023-05-09T14:10:48.087Z,8.13
2023-05-09T14:13:15.676Z,9.23
2023-05-09T14:15:42.205Z,7.93
2023-05-09T14:18:08.907Z,7.70
2023-05-09T14:20:37.157Z,9.60
2023-05-09T14:23:03.647Z,9.18
2023-05-09T14:25:30.125Z,10.00
2023-05-09T14:27:56.512Z,8.35
2023-05-09T14:30:22.919Z,8.35
2023-05-09T14:32:49.278Z,8.52
2023-05-09T14:35:15.636Z,9.32
2023-05-09T14:37:42.197Z,10.90
2023-05-09T14:40:10.060Z,10.18
2023-05-09T14:42:36.930Z,9.00
2023-05-09T14:45:03.915Z,9.77
2023-05-09T14:47:30.506Z,11.20
2023-05-09T14:49:56.926Z,8.85
2023-05-09T14:52:23.354Z,9.98
2023-05-09T14:54:49.684Z,11.38
2023-05-09T14:57:16.017Z,10.35
2023-05-09T14:59:42.460Z,9.43
2023-05-09T15:02:08.775Z,11.50
2023-05-09T15:04:35.299Z,8.77
2023-05-09T15:07:01.740Z,9.45
2023-05-09T15:09:28.166Z,10.18
2023-05-09T15:11:55.051Z,10.80
2023-05-09T15:14:21.556Z,10.85
2023-05-09T15:16:48.403Z,11.52
2023-05-09T15:19:14.879Z,12.10
2023-05-09T15:21:41.447Z,9.70
2023-05-09T15:24:07.894Z,8.65
2023-05-09T15:26:34.463Z,7.57
2023-05-09T15:29:00.829Z,6.60
2023-05-09T15:31:29.334Z,5.75
2023-05-09T15:33:55.735Z,4.53
2023-05-09T15:36:22.145Z,8.40
2023-05-09T15:38:49.765Z,10.50
2023-05-09T15:41:16.314Z,10.65
2023-05-09T15:43:42.899Z,9.95
2023-05-09T15:46:09.376Z,11.43
2023-05-09T15:48:35.878Z,9.75
2023-05-09T15:51:02.774Z,9.30
2023-05-09T15:53:29.428Z,8.98
2023-05-09T15:55:56.977Z,10.00
2023-05-09T15:58:23.525Z,9.10
2023-05-09T16:00:50.102Z,7.03
2023-05-09T16:03:16.955Z,11.25
2023-05-09T16:05:43.859Z,9.73
2023-05-09T16:08:10.403Z,10.05
2023-05-09T16:10:36.836Z,9.20
2023-05-09T16:13:03.327Z,9.75
2023-05-09T16:15:29.733Z,8.77
2023-05-09T16:17:56.533Z,9.23
2023-05-09T16:20:23.009Z,7.68
2023-05-09T16:22:49.358Z,7.75
2023-05-09T16:25:16.550Z,7.43
2023-05-09T16:27:42.871Z,7.05
2023-05-09T16:30:09.579Z,5.22
2023-05-09T16:32:36.151Z,6.53
2023-05-09T16:35:02.798Z,6.22
2023-05-09T16:37:29.805Z,5.43
2023-05-09T16:39:56.415Z,5.00
2023-05-09T16:42:22.794Z,4.40
2023-05-09T16:44:49.297Z,4.93
2023-05-09T16:47:15.728Z,4.80
2023-05-09T16:49:42.170Z,5.10
2023-05-09T16:52:08.586Z,4.90
2023-05-09T16:54:34.891Z,5.03
2023-05-09T16:57:01.376Z,4.53
2023-05-09T16:59:27.764Z,5.32
2023-05-09T17:01:54.234Z,4.38
2023-05-09T17:04:20.775Z,4.95
2023-05-09T17:06:47.193Z,4.32
2023-05-09T17:09:13.678Z,4.35
2023-05-09T17:11:40.047Z,4.20
2023-05-09T17:14:06.352Z,3.15
2023-05-09T17:16:32.815Z,3.75
2023-05-09T17:18:59.446Z,2.97
2023-05-09T17:21:26.145Z,3.13
2023-05-09T17:23:53.941Z,4.57
2023-05-09T17:26:21.008Z,3.65
2023-05-09T17:28:47.980Z,3.55
2023-05-09T17:31:14.330Z,4.32
2023-05-09T17:33:40.969Z,4.03
2023-05-09T17:36:07.434Z,3.33
2023-05-09T17:38:33.814Z,2.92
2023-05-09T17:41:00.354Z,2.40
2023-05-09T17:43:28.344Z,2.03
2023-05-09T17:45:54.820Z,1.80
2023-05-09T17:48:21.194Z,1.38
2023-05-09T17:50:47.486Z,1.63
2023-05-09T17:53:14.053Z,1.50
2023-05-09T17:55:41.157Z,1.70
2023-05-09T17:58:08.203Z,1.50
2023-05-09T18:00:34.690Z,1.70
2023-05-09T18:03:01.630Z,1.40
2023-05-09T18:05:28.200Z,1.45
2023-05-09T18:07:54.515Z,1.30
2023-05-09T18:10:20.879Z,1.85
2023-05-09T18:12:47.539Z,1.65
2023-05-09T18:15:14.011Z,1.50
2023-05-09T18:17:40.426Z,1.55
2023-05-09T18:20:07.306Z,1.23
2023-05-09T18:22:33.605Z,1.13
2023-05-09T18:25:00.386Z,0.90
2023-05-09T18:27:27.175Z,0.60
2023-05-09T18:29:53.481Z,0.93
2023-05-09T18:32:20.726Z,0.70
2023-05-09T18:34:48.491Z,0.80
2023-05-09T18:37:15.545Z,0.50
2023-05-09T18:39:42.084Z,0.40
2023-05-09T18:42:08.389Z,0.30
2023-05-09T18:44:35.101Z,0.20
2023-05-09T18:47:01.552Z,0.30
2023-05-09T18:49:28.047Z,0.30
2023-05-09T18:51:56.309Z,0.20
2023-05-09T18:54:22.629Z,0.10
2023-05-09T18:56:50.055Z,0.30
2023-05-09T18:59:17.340Z,0.32
2023-05-09T19:01:44.203Z,0.45
2023-05-09T19:04:10.901Z,0.30
2023-05-09T19:06:37.440Z,0.20
2023-05-09T19:09:04.444Z,0.80
2023-05-09T19:11:31.023Z,0.70
2023-05-09T19:13:57.433Z,0.70
2023-05-09T19:16:26.928Z,0.40
2023-05-09T19:18:57.367Z,0.43
2023-05-09T19:21:25.007Z,0.40
2023-05-09T19:23:52.116Z,0.30
2023-05-09T19:26:19.333Z,0.20
2023-05-09T19:28:46.812Z,0.30
2023-05-09T19:31:14.815Z,0.30
2023-05-09T19:33:42.623Z,0.17
2023-05-09T19:36:09.364Z,0.10
2023-05-09T19:38:36.076Z,0.40
2023-05-09T19:41:02.818Z,0.60
2023-05-09T19:43:29.826Z,0.60
2023-05-09T19:45:56.451Z,0.50
2023-05-09T19:48:23.151Z,0.40
2023-05-09T19:50:50.002Z,0.77
2023-05-09T19:53:16.531Z,0.90
2023-05-09T19:55:46.918Z,1.10
2023-05-09T19:58:17.454Z,1.10
2023-05-09T20:00:44.371Z,0.60
2023-05-09T20:03:10.906Z,1.20
2023-05-09T20:05:37.542Z,0.80
2023-05-09T20:08:04.049Z,0.70
2023-05-09T20:10:32.936Z,0.50
2023-05-09T20:13:00.995Z,0.93
2023-05-09T20:15:27.940Z,0.57
2023-05-09T20:17:54.511Z,0.40
2023-05-09T20:20:21.061Z,0.73
2023-05-09T20:22:47.675Z,0.75
2023-05-09T20:25:14.833Z,0.80
2023-05-09T20:27:41.288Z,0.88
2023-05-09T20:30:07.902Z,0.90
2023-05-09T20:32:34.705Z,0.63
2023-05-09T20:35:01.094Z,1.00
2023-05-09T20:37:27.402Z,1.20
2023-05-09T20:39:53.785Z,0.90
2023-05-09T20:42:20.170Z,0.80
2023-05-09T20:44:47.701Z,0.60
2023-05-09T20:47:14.130Z,0.80
2023-05-09T20:49:40.505Z,0.70
2023-05-09T20:52:06.818Z,0.52
2023-05-09T20:54:33.154Z,0.50
2023-05-09T20:56:59.551Z,0.73
2023-05-09T20:59:25.834Z,0.98
2023-05-09T21:01:52.663Z,1.00
2023-05-09T21:04:19.229Z,1.30
2023-05-09T21:06:45.710Z,1.40
2023-05-09T21:09:12.214Z,1.60
2023-05-09T21:11:39.633Z,1.60
2023-05-09T21:14:06.235Z,2.00
2023-05-09T21:16:32.704Z,1.85
2023-05-09T21:19:02.386Z,1.40
2023-05-09T21:21:29.054Z,0.90
2023-05-09T21:23:55.522Z,0.70
2023-05-09T21:26:23.122Z,0.70
2023-05-09T21:28:49.486Z,0.60
2023-05-09T21:31:15.934Z,0.38
2023-05-09T21:33:42.258Z,0.40
2023-05-09T21:36:08.667Z,0.45
2023-05-09T21:38:35.036Z,0.38
2023-05-09T21:41:01.454Z,0.40
2023-05-09T21:43:28.867Z,0.40
2023-05-09T21:45:55.527Z,0.30
2023-05-09T21:48:22.144Z,0.40
2023-05-09T21:50:48.503Z,0.40
2023-05-09T21:53:14.813Z,0.45
2023-05-09T21:55:41.372Z,0.22
2023-05-09T21:58:07.740Z,0.20
2023-05-09T22:00:34.119Z,0.40
2023-05-09T22:03:01.078Z,0.30
2023-05-09T22:05:28.272Z,0.20
2023-05-09T22:07:54.648Z,0.38
2023-05-09T22:10:20.991Z,0.30
2023-05-09T22:12:47.444Z,0.20
2023-05-09T22:15:13.998Z,0.20
2023-05-09T22:17:40.368Z,0.20
2023-05-09T22:20:07.122Z,0.25
2023-05-09T22:22:33.681Z,0.28
2023-05-09T22:25:00.042Z,0.20
2023-05-09T22:27:26.396Z,0.30
2023-05-09T22:29:53.053Z,0.30
2023-05-09T22:32:19.407Z,0.25
2023-05-09T22:34:48.879Z,0.17
2023-05-09T22:37:15.343Z,0.20
2023-05-09T22:39:41.710Z,0.20
2023-05-09T22:42:09.753Z,0.20
2023-05-09T22:44:36.140Z,0.20
2023-05-09T22:47:02.503Z,0.30
2023-05-09T22:49:28.870Z,0.10
2023-05-09T22:51:55.404Z,0.20
2023-05-09T22:54:22.233Z,0.20
2023-05-09T22:56:48.628Z,0.20
2023-05-09T22:59:15.067Z,0.20
2023-05-09T23:01:41.459Z,0.20
2023-05-09T23:04:08.114Z,0.20
2023-05-09T23:06:34.451Z,0.20
2023-05-09T23:09:00.745Z,0.20
2023-05-09T23:11:27.237Z,0.20
2023-05-09T23:13:53.685Z,0.30
2023-05-09T23:16:20.188Z,0.28
2023-05-09T23:18:46.612Z,0.20
2023-05-09T23:21:12.987Z,0.20
2023-05-09T23:23:39.334Z,0.40
2023-05-09T23:26:05.723Z,0.20
2023-05-09T23:28:32.149Z,0.20
2023-05-09T23:30:58.563Z,0.10
2023-05-09T23:33:24.931Z,0.20
2023-05-09T23:35:51.326Z,0.20
2023-05-09T23:38:17.610Z,0.20
2023-05-09T23:40:44.891Z,0.20
2023-05-09T23:43:11.380Z,0.20
2023-05-09T23:45:37.736Z,0.30
2023-05-09T23:48:04.385Z,0.20
2023-05-09T23:50:30.944Z,0.20
2023-05-09T23:52:57.279Z,0.10
2023-05-09T23:55:23.639Z,0.30
2023-05-09T23:57:50.116Z,0.30
